Time,TemperatureF,DewpointF,PressureIn,WindDirection,WindDirectionDegrees,WindSpeedMPH,WindSpeedGustMPH,Humidity,HourlyPrecipIn,Conditions,Clouds,dailyrainin,SoftwareType,DateUTC
2013-04-21 00:01:00,42.3,22.4,30.35,WNW,290,2.0,2.0,45,0.00,,,0.00,Wunderground v.1.15,2013-04-21 04:01:00,
2013-04-21 00:05:00,42.2,22.4,30.35,NNW,336,2.0,2.0,45,0.00,,,0.00,Wunderground v.1.15,2013-04-21 04:05:00,
2013-04-21 00:10:00,42.0,22.2,30.35,North,5,2.0,4.0,45,0.00,,,0.00,Wunderground v.1.15,2013-04-21 04:10:00,
2013-04-21 00:16:00,42.0,22.2,30.36,NE,46,3.0,3.0,45,0.00,,,0.00,Wunderground v.1.15,2013-04-21 04:16:00,
2013-04-21 00:25:00,41.8,22.5,30.37,West,277,2.0,2.0,46,0.00,,,0.00,Wunderground v.1.15,2013-04-21 04:25:00,
2013-04-21 00:31:00,41.5,22.7,30.37,NNE,32,2.0,4.0,47,0.00,,,0.00,Wunderground v.1.15,2013-04-21 04:31:00,
2013-04-21 00:40:00,41.2,22.5,30.37,NW,325,2.0,2.0,47,0.00,,,0.00,Wunderground v.1.15,2013-04-21 04:40:00,
2013-04-21 00:46:00,41.0,22.8,30.37,NNW,346,2.0,3.0,48,0.00,,,0.00,Wunderground v.1.15,2013-04-21 04:46:00,
2013-04-21 00:55:00,40.8,22.6,30.37,NW,314,1.0,1.0,48,0.00,,,0.00,Wunderground v.1.15,2013-04-21 04:55:00,
2013-04-21 01:01:00,40.6,22.4,30.37,NNE,23,1.0,3.0,48,0.00,,,0.00,Wunderground v.1.15,2013-04-21 05:01:00,
2013-04-21 01:10:00,40.2,22.1,30.38,NNE,13,2.0,2.0,48,0.00,,,0.00,Wunderground v.1.15,2013-04-21 05:10:00,
2013-04-21 01:16:00,40.0,22.4,30.38,North,9,1.0,2.0,49,0.00,,,0.00,Wunderground v.1.15,2013-04-21 05:16:00,
2013-04-21 01:25:00,39.6,22.9,30.39,NNW,340,1.0,2.0,51,0.00,,,0.00,Wunderground v.1.15,2013-04-21 05:25:00,
2013-04-21 01:30:00,39.5,24.7,30.39,NNE,19,1.0,1.0,55,0.00,,,0.00,Wunderground v.1.15,2013-04-21 05:30:00,
2013-04-21 01:40:00,39.1,22.9,30.39,NNE,19,0.0,2.0,52,0.00,,,0.00,Wunderground v.1.15,2013-04-21 05:40:00,
2013-04-21 01:45:00,39.0,23.3,30.39,North,5,1.0,2.0,53,0.00,,,0.00,Wunderground v.1.15,2013-04-21 05:45:00,
2013-04-21 01:55:00,38.7,22.1,30.39,NNW,346,1.0,2.0,51,0.00,,,0.00,Wunderground v.1.15,2013-04-21 05:55:00,
2013-04-21 02:00:00,38.6,22.5,30.39,NNE,28,1.0,1.0,52,0.00,,,0.00,Wunderground v.1.15,2013-04-21 06:00:00,
2013-04-21 02:10:00,38.2,21.2,30.40,NNE,28,0.0,0.0,50,0.00,,,0.00,Wunderground v.1.15,2013-04-21 06:10:00,
2013-04-21 02:15:00,38.2,21.2,30.40,NNE,23,0.0,0.0,50,0.00,,,0.00,Wunderground v.1.15,2013-04-21 06:15:00,
2013-04-21 02:25:00,37.9,20.9,30.40,NNE,23,0.0,0.0,50,0.00,,,0.00,Wunderground v.1.15,2013-04-21 06:25:00,
2013-04-21 02:30:00,37.8,20.8,30.40,NNE,23,0.0,2.0,50,0.00,,,0.00,Wunderground v.1.15,2013-04-21 06:30:00,
2013-04-21 02:40:00,37.6,21.1,30.40,NE,44,1.0,3.0,51,0.00,,,0.00,Wunderground v.1.15,2013-04-21 06:40:00,
2013-04-21 02:46:00,37.5,21.5,30.41,NE,34,1.0,3.0,52,0.00,,,0.00,Wunderground v.1.15,2013-04-21 06:46:00,
2013-04-21 02:55:00,37.3,21.3,30.41,NE,34,0.0,0.0,52,0.00,,,0.00,Wunderground v.1.15,2013-04-21 06:55:00,
2013-04-21 03:01:00,37.0,21.0,30.41,NE,34,0.0,0.0,52,0.00,,,0.00,Wunderground v.1.15,2013-04-21 07:01:00,
2013-04-21 03:10:00,36.8,20.3,30.42,NE,34,0.0,0.0,51,0.00,,,0.00,Wunderground v.1.15,2013-04-21 07:10:00,
2013-04-21 03:16:00,36.8,20.8,30.42,NNE,20,0.0,0.0,52,0.00,,,0.00,Wunderground v.1.15,2013-04-21 07:16:00,
2013-04-21 03:25:00,36.6,21.5,30.42,NNE,20,0.0,0.0,54,0.00,,,0.00,Wunderground v.1.15,2013-04-21 07:25:00,
2013-04-21 03:31:00,36.5,21.4,30.43,NNE,20,0.0,0.0,54,0.00,,,0.00,Wunderground v.1.15,2013-04-21 07:31:00,
2013-04-21 03:40:00,36.2,21.6,30.43,NNE,20,0.0,0.0,55,0.00,,,0.00,Wunderground v.1.15,2013-04-21 07:40:00,
2013-04-21 03:45:00,36.0,20.9,30.43,NNE,20,0.0,0.0,54,0.00,,,0.00,Wunderground v.1.15,2013-04-21 07:45:00,
2013-04-21 03:55:00,35.9,21.3,30.43,NNE,20,0.0,0.0,55,0.00,,,0.00,Wunderground v.1.15,2013-04-21 07:55:00,
2013-04-21 04:01:00,35.8,21.2,30.43,NNE,20,0.0,0.0,55,0.00,,,0.00,Wunderground v.1.15,2013-04-21 08:01:00,
2013-04-21 04:10:00,35.8,21.6,30.44,North,355,0.0,0.0,56,0.00,,,0.00,Wunderground v.1.15,2013-04-21 08:10:00,
2013-04-21 04:16:00,35.7,22.4,30.44,North,11,0.0,1.0,58,0.00,,,0.00,Wunderground v.1.15,2013-04-21 08:16:00,
2013-04-21 04:25:00,35.6,21.9,30.44,North,11,0.0,0.0,57,0.00,,,0.00,Wunderground v.1.15,2013-04-21 08:25:00,
2013-04-21 04:30:00,35.5,21.3,30.45,NNW,341,0.0,0.0,56,0.00,,,0.00,Wunderground v.1.15,2013-04-21 08:30:00,
2013-04-21 04:40:00,35.5,21.8,30.45,East,84,1.0,1.0,57,0.00,,,0.00,Wunderground v.1.15,2013-04-21 08:40:00,
2013-04-21 04:46:00,35.6,21.9,30.45,NNE,32,1.0,2.0,57,0.00,,,0.00,Wunderground v.1.15,2013-04-21 08:46:00,
2013-04-21 04:55:00,35.8,22.5,30.45,NNE,14,2.0,3.0,58,0.00,,,0.00,Wunderground v.1.15,2013-04-21 08:55:00,
2013-04-21 05:00:00,35.7,21.9,30.46,North,350,2.0,2.0,57,0.00,,,0.00,Wunderground v.1.15,2013-04-21 09:00:00,
2013-04-21 05:10:00,35.7,21.9,30.46,NE,36,2.0,3.0,57,0.00,,,0.00,Wunderground v.1.15,2013-04-21 09:10:00,
2013-04-21 05:16:00,35.6,21.9,30.47,NNW,333,2.0,3.0,57,0.00,,,0.00,Wunderground v.1.15,2013-04-21 09:16:00,
2013-04-21 05:25:00,35.4,22.5,30.47,WNW,289,1.0,2.0,59,0.00,,,0.00,Wunderground v.1.15,2013-04-21 09:25:00,
2013-04-21 05:31:00,35.3,22.0,30.47,North,9,1.0,1.0,58,0.00,,,0.00,Wunderground v.1.15,2013-04-21 09:31:00,
2013-04-21 05:40:00,35.3,22.0,30.48,West,278,2.0,2.0,58,0.00,,,0.00,Wunderground v.1.15,2013-04-21 09:40:00,
2013-04-21 05:45:00,35.2,21.9,30.48,NNE,19,1.0,2.0,58,0.00,,,0.00,Wunderground v.1.15,2013-04-21 09:45:00,
2013-04-21 05:55:00,35.2,21.9,30.49,North,355,2.0,2.0,58,0.00,,,0.00,Wunderground v.1.15,2013-04-21 09:55:00,
2013-04-21 06:00:00,35.2,21.9,30.49,North,355,2.0,2.0,58,0.00,,,0.00,Wunderground v.1.15,2013-04-21 10:00:00,
2013-04-21 06:10:00,35.0,22.1,30.49,NNW,348,0.0,0.0,59,0.00,,,0.00,Wunderground v.1.15,2013-04-21 10:10:00,
2013-04-21 06:16:00,34.8,21.9,30.50,NNW,348,0.0,0.0,59,0.00,,,0.00,Wunderground v.1.15,2013-04-21 10:16:00,
2013-04-21 06:25:00,34.7,22.6,30.50,NNW,340,0.0,0.0,61,0.00,,,0.00,Wunderground v.1.15,2013-04-21 10:25:00,
2013-04-21 06:31:00,34.5,22.4,30.51,WNW,290,0.0,0.0,61,0.00,,,0.00,Wunderground v.1.15,2013-04-21 10:31:00,
2013-04-21 06:40:00,34.6,22.1,30.52,NNE,13,1.0,1.0,60,0.00,,,0.00,Wunderground v.1.15,2013-04-21 10:40:00,
2013-04-21 06:45:00,34.8,21.9,30.52,North,5,1.0,1.0,59,0.00,,,0.00,Wunderground v.1.15,2013-04-21 10:45:00,
2013-04-21 06:55:00,35.2,21.9,30.53,NNE,13,1.0,2.0,58,0.00,,,0.00,Wunderground v.1.15,2013-04-21 10:55:00,
2013-04-21 07:00:00,35.4,22.5,30.53,NNE,29,1.0,2.0,59,0.00,,,0.00,Wunderground v.1.15,2013-04-21 11:00:00,
2013-04-21 07:10:00,35.9,23.0,30.54,North,360,1.0,1.0,59,0.00,,,0.00,Wunderground v.1.15,2013-04-21 11:10:00,
2013-04-21 07:15:00,36.2,22.8,30.54,NNE,23,1.0,1.0,58,0.00,,,0.00,Wunderground v.1.15,2013-04-21 11:15:00,
2013-04-21 07:25:00,36.9,22.7,30.54,NNE,15,2.0,2.0,56,0.00,,,0.00,Wunderground v.1.15,2013-04-21 11:25:00,
2013-04-21 07:30:00,37.2,23.4,30.55,NNE,27,2.0,3.0,57,0.00,,,0.00,Wunderground v.1.15,2013-04-21 11:30:00,
2013-04-21 07:40:00,37.7,23.4,30.55,NNE,28,2.0,3.0,56,0.00,,,0.00,Wunderground v.1.15,2013-04-21 11:40:00,
2013-04-21 07:45:00,37.8,23.9,30.55,NE,37,2.0,4.0,57,0.00,,,0.00,Wunderground v.1.15,2013-04-21 11:45:00,
2013-04-21 07:55:00,38.0,23.7,30.56,NE,54,3.0,3.0,56,0.00,,,0.00,Wunderground v.1.15,2013-04-21 11:55:00,
2013-04-21 08:00:00,38.4,24.1,30.56,WNW,286,2.0,2.0,56,0.00,,,0.00,Wunderground v.1.15,2013-04-21 12:00:00,
2013-04-21 08:10:00,38.7,23.9,30.57,North,5,2.0,3.0,55,0.00,,,0.00,Wunderground v.1.15,2013-04-21 12:10:00,
2013-04-21 08:15:00,38.8,23.1,30.57,West,276,2.0,3.0,53,0.00,,,0.00,Wunderground v.1.15,2013-04-21 12:15:00,
2013-04-21 08:25:00,38.7,23.5,30.57,North,350,5.0,5.0,54,0.00,,,0.00,Wunderground v.1.15,2013-04-21 12:25:00,
2013-04-21 08:30:00,38.7,22.6,30.57,North,355,5.0,5.0,52,0.00,,,0.00,Wunderground v.1.15,2013-04-21 12:30:00,
2013-04-21 08:40:00,39.6,23.9,30.57,NW,325,3.0,3.0,53,0.00,,,0.00,Wunderground v.1.15,2013-04-21 12:40:00,
2013-04-21 08:45:00,40.0,24.7,30.57,NE,46,4.0,4.0,54,0.00,,,0.00,Wunderground v.1.15,2013-04-21 12:45:00,
2013-04-21 08:55:00,40.3,24.5,30.58,East,98,4.0,8.0,53,0.00,,,0.00,Wunderground v.1.15,2013-04-21 12:55:00,
2013-04-21 09:00:00,40.2,23.5,30.58,NNE,15,5.0,6.0,51,0.00,,,0.00,Wunderground v.1.15,2013-04-21 13:00:00,
2013-04-21 09:10:00,40.0,23.8,30.58,NE,44,6.0,6.0,52,0.00,,,0.00,Wunderground v.1.15,2013-04-21 13:10:00,
2013-04-21 09:15:00,40.3,23.1,30.58,North,360,5.0,6.0,50,0.00,,,0.00,Wunderground v.1.15,2013-04-21 13:15:00,
2013-04-21 09:25:00,41.4,24.1,30.58,West,271,2.0,6.0,50,0.00,,,0.00,Wunderground v.1.15,2013-04-21 13:25:00,
2013-04-21 09:31:00,41.8,24.0,30.58,NW,309,3.0,3.0,49,0.00,,,0.00,Wunderground v.1.15,2013-04-21 13:31:00,
2013-04-21 09:40:00,41.9,24.1,30.58,NNE,12,3.0,3.0,49,0.00,,,0.00,Wunderground v.1.15,2013-04-21 13:40:00,
2013-04-21 09:45:00,42.2,24.9,30.59,ENE,65,4.0,5.0,50,0.00,,,0.00,Wunderground v.1.15,2013-04-21 13:45:00,
2013-04-21 09:55:00,42.9,24.0,30.59,West,267,2.0,4.0,47,0.00,,,0.00,Wunderground v.1.15,2013-04-21 13:55:00,
2013-04-21 10:01:00,43.1,23.7,30.59,NE,36,3.0,6.0,46,0.00,,,0.00,Wunderground v.1.15,2013-04-21 14:01:00,
2013-04-21 10:10:00,42.6,24.3,30.59,ENE,69,4.0,4.0,48,0.00,,,0.00,Wunderground v.1.15,2013-04-21 14:10:00,
2013-04-21 10:16:00,42.9,25.5,30.59,NE,48,5.0,7.0,50,0.00,,,0.00,Wunderground v.1.15,2013-04-21 14:16:00,
2013-04-21 10:25:00,43.8,24.9,30.59,NNW,342,3.0,4.0,47,0.00,,,0.00,Wunderground v.1.15,2013-04-21 14:25:00,
2013-04-21 10:31:00,44.5,25.5,30.59,North,9,2.0,2.0,47,0.00,,,0.00,Wunderground v.1.15,2013-04-21 14:31:00,
2013-04-21 10:40:00,45.4,25.3,30.59,North,360,2.0,4.0,45,0.00,,,0.00,Wunderground v.1.15,2013-04-21 14:40:00,
2013-04-21 10:46:00,45.7,25.0,30.59,NW,319,2.0,4.0,44,0.00,,,0.00,Wunderground v.1.15,2013-04-21 14:46:00,
2013-04-21 10:55:00,45.7,26.6,30.59,NNE,20,2.0,6.0,47,0.00,,,0.00,Wunderground v.1.15,2013-04-21 14:55:00,
2013-04-21 11:01:00,46.1,24.8,30.59,NE,41,2.0,2.0,43,0.00,,,0.00,Wunderground v.1.15,2013-04-21 15:01:00,
2013-04-21 11:10:00,46.4,26.7,30.59,North,5,3.0,3.0,46,0.00,,,0.00,Wunderground v.1.15,2013-04-21 15:10:00,
2013-04-21 11:16:00,46.6,25.8,30.59,North,350,3.0,3.0,44,0.00,,,0.00,Wunderground v.1.15,2013-04-21 15:16:00,
2013-04-21 11:25:00,46.2,24.9,30.59,NE,53,3.0,5.0,43,0.00,,,0.00,Wunderground v.1.15,2013-04-21 15:25:00,
2013-04-21 11:31:00,45.8,25.1,30.59,NE,47,3.0,3.0,44,0.00,,,0.00,Wunderground v.1.15,2013-04-21 15:31:00,
2013-04-21 11:40:00,47.2,25.3,30.59,North,5,2.0,4.0,42,0.00,,,0.00,Wunderground v.1.15,2013-04-21 15:40:00,
2013-04-21 11:45:00,47.6,25.0,30.59,ENE,58,3.0,4.0,41,0.00,,,0.00,Wunderground v.1.15,2013-04-21 15:45:00,
2013-04-21 11:55:00,47.4,24.9,30.58,ENE,74,3.0,5.0,41,0.00,,,0.00,Wunderground v.1.15,2013-04-21 15:55:00,
2013-04-21 12:00:00,47.9,25.3,30.58,WSW,255,3.0,3.0,41,0.00,,,0.00,Wunderground v.1.15,2013-04-21 16:00:00,
2013-04-21 12:10:00,49.8,27.6,30.58,East,90,2.0,3.0,42,0.00,,,0.00,Wunderground v.1.15,2013-04-21 16:10:00,
2013-04-21 12:15:00,49.4,25.4,30.58,ENE,63,3.0,4.0,39,0.00,,,0.00,Wunderground v.1.15,2013-04-21 16:15:00,
2013-04-21 12:25:00,49.0,25.7,30.58,NE,46,3.0,6.0,40,0.00,,,0.00,Wunderground v.1.15,2013-04-21 16:25:00,
2013-04-21 12:31:00,49.0,23.2,30.58,NE,42,2.0,2.0,36,0.00,,,0.00,Wunderground v.1.15,2013-04-21 16:31:00,
2013-04-21 12:40:00,49.6,24.4,30.57,East,81,2.0,3.0,37,0.00,,,0.00,Wunderground v.1.15,2013-04-21 16:40:00,
2013-04-21 12:46:00,49.5,23.6,30.57,NE,39,2.0,3.0,36,0.00,,,0.00,Wunderground v.1.15,2013-04-21 16:46:00,
2013-04-21 12:55:00,50.0,24.7,30.57,ENE,76,2.0,5.0,37,0.00,,,0.00,Wunderground v.1.15,2013-04-21 16:55:00,
2013-04-21 13:05:00,49.1,23.9,30.57,East,88,4.0,5.0,37,0.00,,,0.00,Wunderground v.1.15,2013-04-21 17:05:00,
2013-04-21 13:10:00,49.3,23.4,30.57,NE,45,2.0,5.0,36,0.00,,,0.00,Wunderground v.1.15,2013-04-21 17:10:00,
2013-04-21 13:15:00,49.4,23.5,30.56,ENE,57,3.0,7.0,36,0.00,,,0.00,Wunderground v.1.15,2013-04-21 17:15:00,
2013-04-21 13:25:00,50.1,26.1,30.56,NE,42,3.0,4.0,39,0.00,,,0.00,Wunderground v.1.15,2013-04-21 17:25:00,
2013-04-21 13:30:00,50.6,23.9,30.56,East,94,3.0,4.0,35,0.00,,,0.00,Wunderground v.1.15,2013-04-21 17:30:00,
2013-04-21 13:40:00,51.8,24.3,30.57,ENE,74,3.0,5.0,34,0.00,,,0.00,Wunderground v.1.15,2013-04-21 17:40:00,
2013-04-21 13:46:00,51.2,23.0,30.57,WNW,289,3.0,3.0,33,0.00,,,0.00,Wunderground v.1.15,2013-04-21 17:46:00,
2013-04-21 13:55:00,51.2,26.4,30.57,NNE,24,2.0,2.0,38,0.00,,,0.00,Wunderground v.1.15,2013-04-21 17:55:00,
2013-04-21 14:01:00,52.3,25.4,30.56,East,97,2.0,2.0,35,0.00,,,0.00,Wunderground v.1.15,2013-04-21 18:01:00,
2013-04-21 14:10:00,52.8,23.0,30.56,NNE,17,2.0,4.0,31,0.00,,,0.00,Wunderground v.1.15,2013-04-21 18:10:00,
2013-04-21 14:16:00,52.1,25.3,30.56,ENE,67,3.0,4.0,35,0.00,,,0.00,Wunderground v.1.15,2013-04-21 18:16:00,
2013-04-21 14:25:00,52.5,24.2,30.55,NE,51,3.0,3.0,33,0.00,,,0.00,Wunderground v.1.15,2013-04-21 18:25:00,
2013-04-21 14:31:00,52.4,24.8,30.55,North,9,3.0,4.0,34,0.00,,,0.00,Wunderground v.1.15,2013-04-21 18:31:00,
2013-04-21 14:40:00,52.6,25.7,30.55,NNW,342,2.0,5.0,35,0.00,,,0.00,Wunderground v.1.15,2013-04-21 18:40:00,
2013-04-21 14:50:00,52.8,23.0,30.55,ENE,67,3.0,5.0,31,0.00,,,0.00,Wunderground v.1.15,2013-04-21 18:50:00,
2013-04-21 15:00:00,52.6,24.3,30.55,NE,38,3.0,3.0,33,0.00,,,0.00,Wunderground v.1.15,2013-04-21 19:00:00,
2013-04-21 15:10:00,53.3,24.9,30.54,NE,39,1.0,1.0,33,0.00,,,0.00,Wunderground v.1.15,2013-04-21 19:10:00,
2013-04-21 15:16:00,53.9,23.1,30.54,NNE,30,1.0,1.0,30,0.00,,,0.00,Wunderground v.1.15,2013-04-21 19:16:00,
2013-04-21 15:25:00,54.6,24.5,30.53,ENE,75,0.0,3.0,31,0.00,,,0.00,Wunderground v.1.15,2013-04-21 19:25:00,
2013-04-21 15:31:00,54.1,24.9,30.54,South,186,1.0,2.0,32,0.00,,,0.00,Wunderground v.1.15,2013-04-21 19:31:00,
2013-04-21 15:40:00,54.6,23.7,30.54,ENE,70,2.0,7.0,30,0.00,,,0.00,Wunderground v.1.15,2013-04-21 19:40:00,
2013-04-21 15:50:00,53.4,25.0,30.53,ENE,78,3.0,3.0,33,0.00,,,0.00,Wunderground v.1.15,2013-04-21 19:50:00,
2013-04-21 15:55:00,53.2,22.5,30.53,NNW,348,3.0,3.0,30,0.00,,,0.00,Wunderground v.1.15,2013-04-21 19:55:00,
2013-04-21 16:01:00,53.1,25.4,30.53,ENE,67,2.0,2.0,34,0.00,,,0.00,Wunderground v.1.15,2013-04-21 20:01:00,
2013-04-21 16:10:00,53.3,24.9,30.53,ENE,70,2.0,3.0,33,0.00,,,0.00,Wunderground v.1.15,2013-04-21 20:10:00,
2013-04-21 16:15:00,53.5,24.3,30.53,ENE,59,2.0,4.0,32,0.00,,,0.00,Wunderground v.1.15,2013-04-21 20:15:00,
2013-04-21 16:25:00,53.4,22.7,30.53,SE,131,4.0,4.0,30,0.00,,,0.00,Wunderground v.1.15,2013-04-21 20:25:00,
2013-04-21 16:30:00,53.3,22.6,30.53,SE,133,2.0,2.0,30,0.00,,,0.00,Wunderground v.1.15,2013-04-21 20:30:00,
2013-04-21 16:40:00,54.1,22.5,30.53,ESE,109,1.0,1.0,29,0.00,,,0.00,Wunderground v.1.15,2013-04-21 20:40:00,
2013-04-21 16:46:00,54.2,23.4,30.53,NE,41,1.0,1.0,30,0.00,,,0.00,Wunderground v.1.15,2013-04-21 20:46:00,
2013-04-21 16:55:00,53.9,22.3,30.53,ESE,103,2.0,2.0,29,0.00,,,0.00,Wunderground v.1.15,2013-04-21 20:55:00,
2013-04-21 17:00:00,53.9,23.9,30.53,NE,43,1.0,1.0,31,0.00,,,0.00,Wunderground v.1.15,2013-04-21 21:00:00,
2013-04-21 17:10:00,54.0,22.4,30.53,East,101,2.0,2.0,29,0.00,,,0.00,Wunderground v.1.15,2013-04-21 21:10:00,
2013-04-21 17:16:00,53.9,24.7,30.53,East,94,2.0,2.0,32,0.00,,,0.00,Wunderground v.1.15,2013-04-21 21:16:00,
2013-04-21 17:25:00,54.1,24.9,30.53,ESE,117,1.0,2.0,32,0.00,,,0.00,Wunderground v.1.15,2013-04-21 21:25:00,
2013-04-21 17:31:00,54.5,23.7,30.54,North,5,0.0,2.0,30,0.00,,,0.00,Wunderground v.1.15,2013-04-21 21:31:00,
2013-04-21 17:40:00,54.4,22.8,30.54,South,188,1.0,1.0,29,0.00,,,0.00,Wunderground v.1.15,2013-04-21 21:40:00,
2013-04-21 17:45:00,54.4,25.1,30.54,ENE,71,1.0,3.0,32,0.00,,,0.00,Wunderground v.1.15,2013-04-21 21:45:00,
2013-04-21 17:55:00,53.7,23.7,30.54,East,88,2.0,3.0,31,0.00,,,0.00,Wunderground v.1.15,2013-04-21 21:55:00,
2013-04-21 18:00:00,53.5,23.6,30.54,East,80,2.0,2.0,31,0.00,,,0.00,Wunderground v.1.15,2013-04-21 22:00:00,
2013-04-21 18:10:00,53.1,24.0,30.54,ENE,71,2.0,4.0,32,0.00,,,0.00,Wunderground v.1.15,2013-04-21 22:10:00,
2013-04-21 18:16:00,53.0,23.1,30.54,East,88,1.0,4.0,31,0.00,,,0.00,Wunderground v.1.15,2013-04-21 22:16:00,
2013-04-21 18:25:00,52.9,22.3,30.54,SE,127,0.0,0.0,30,0.00,,,0.00,Wunderground v.1.15,2013-04-21 22:25:00,
2013-04-21 18:30:00,53.0,22.4,30.54,East,79,0.0,0.0,30,0.00,,,0.00,Wunderground v.1.15,2013-04-21 22:30:00,
2013-04-21 18:40:00,52.9,25.3,30.54,ENE,67,1.0,2.0,34,0.00,,,0.00,Wunderground v.1.15,2013-04-21 22:40:00,
2013-04-21 18:46:00,52.6,23.5,30.54,East,97,1.0,2.0,32,0.00,,,0.00,Wunderground v.1.15,2013-04-21 22:46:00,
2013-04-21 18:55:00,52.3,24.0,30.54,East,79,1.0,1.0,33,0.00,,,0.00,Wunderground v.1.15,2013-04-21 22:55:00,
2013-04-21 19:01:00,52.2,24.6,30.54,East,84,0.0,0.0,34,0.00,,,0.00,Wunderground v.1.15,2013-04-21 23:01:00,
2013-04-21 19:10:00,51.9,24.4,30.55,East,84,0.0,0.0,34,0.00,,,0.00,Wunderground v.1.15,2013-04-21 23:10:00,
2013-04-21 19:16:00,51.9,23.7,30.55,East,84,0.0,0.0,33,0.00,,,0.00,Wunderground v.1.15,2013-04-21 23:16:00,
2013-04-21 19:25:00,51.7,24.2,30.55,East,84,0.0,0.0,34,0.00,,,0.00,Wunderground v.1.15,2013-04-21 23:25:00,
2013-04-21 19:31:00,51.6,24.1,30.55,East,84,0.0,0.0,34,0.00,,,0.00,Wunderground v.1.15,2013-04-21 23:31:00,
2013-04-21 19:40:00,51.4,27.9,30.56,East,84,0.0,0.0,40,0.00,,,0.00,Wunderground v.1.15,2013-04-21 23:40:00,
2013-04-21 19:45:00,51.2,25.1,30.56,East,84,0.0,0.0,36,0.00,,,0.00,Wunderground v.1.15,2013-04-21 23:45:00,
2013-04-21 19:55:00,50.6,28.3,30.56,East,84,0.0,0.0,42,0.00,,,0.00,Wunderground v.1.15,2013-04-21 23:55:00,
2013-04-21 20:05:00,50.0,28.4,30.57,East,84,0.0,0.0,43,0.00,,,0.00,Wunderground v.1.15,2013-04-22 00:05:00,
2013-04-21 20:16:00,49.4,28.4,30.57,East,84,0.0,0.0,44,0.00,,,0.00,Wunderground v.1.15,2013-04-22 00:16:00,
2013-04-21 20:25:00,48.8,30.0,30.58,East,84,0.0,0.0,48,0.00,,,0.00,Wunderground v.1.15,2013-04-22 00:25:00,
2013-04-21 20:31:00,48.3,29.0,30.58,East,84,0.0,0.0,47,0.00,,,0.00,Wunderground v.1.15,2013-04-22 00:31:00,
2013-04-21 20:40:00,47.9,29.6,30.58,ESE,111,0.0,0.0,49,0.00,,,0.00,Wunderground v.1.15,2013-04-22 00:40:00,
2013-04-21 20:46:00,47.8,30.5,30.58,ESE,111,0.0,0.0,51,0.00,,,0.00,Wunderground v.1.15,2013-04-22 00:46:00,
2013-04-21 20:55:00,47.3,30.5,30.59,ESE,111,0.0,0.0,52,0.00,,,0.00,Wunderground v.1.15,2013-04-22 00:55:00,
2013-04-21 21:01:00,47.1,31.3,30.59,ESE,111,0.0,0.0,54,0.00,,,0.00,Wunderground v.1.15,2013-04-22 01:01:00,
2013-04-21 21:10:00,46.5,32.5,30.59,ESE,105,0.0,0.0,58,0.00,,,0.00,Wunderground v.1.15,2013-04-22 01:10:00,
2013-04-21 21:15:00,46.0,32.5,30.59,ESE,105,0.0,0.0,59,0.00,,,0.00,Wunderground v.1.15,2013-04-22 01:15:00,
2013-04-21 21:25:00,45.3,33.0,30.60,ESE,105,0.0,0.0,62,0.00,,,0.00,Wunderground v.1.15,2013-04-22 01:25:00,
2013-04-21 21:31:00,45.0,33.5,30.59,ESE,105,0.0,0.0,64,0.00,,,0.00,Wunderground v.1.15,2013-04-22 01:31:00,
2013-04-21 21:40:00,44.6,33.2,30.59,ESE,105,0.0,0.0,64,0.00,,,0.00,Wunderground v.1.15,2013-04-22 01:40:00,
2013-04-21 21:45:00,44.5,33.1,30.59,ESE,105,0.0,0.0,64,0.00,,,0.00,Wunderground v.1.15,2013-04-22 01:45:00,
2013-04-21 21:55:00,44.5,33.8,30.60,ESE,105,0.0,0.0,66,0.00,,,0.00,Wunderground v.1.15,2013-04-22 01:55:00,
2013-04-21 22:00:00,44.5,33.1,30.60,ESE,105,0.0,0.0,64,0.00,,,0.00,Wunderground v.1.15,2013-04-22 02:00:00,
2013-04-21 22:10:00,44.5,34.2,30.60,ESE,105,0.0,0.0,67,0.00,,,0.00,Wunderground v.1.15,2013-04-22 02:10:00,
2013-04-21 22:15:00,44.2,33.6,30.60,ESE,105,0.0,0.0,66,0.00,,,0.00,Wunderground v.1.15,2013-04-22 02:15:00,
2013-04-21 22:25:00,43.8,32.8,30.60,ESE,105,0.0,0.0,65,0.00,,,0.00,Wunderground v.1.15,2013-04-22 02:25:00,
2013-04-21 22:31:00,43.7,33.1,30.60,ESE,105,0.0,0.0,66,0.00,,,0.00,Wunderground v.1.15,2013-04-22 02:31:00,
2013-04-21 22:40:00,43.4,33.2,30.61,ESE,105,0.0,0.0,67,0.00,,,0.00,Wunderground v.1.15,2013-04-22 02:40:00,
2013-04-21 22:45:00,43.2,33.7,30.61,ESE,105,0.0,0.0,69,0.00,,,0.00,Wunderground v.1.15,2013-04-22 02:45:00,
2013-04-21 22:55:00,42.8,33.0,30.61,ESE,105,0.0,0.0,68,0.00,,,0.00,Wunderground v.1.15,2013-04-22 02:55:00,
2013-04-21 23:01:00,42.5,33.0,30.61,ESE,105,0.0,0.0,69,0.00,,,0.00,Wunderground v.1.15,2013-04-22 03:01:00,
2013-04-21 23:10:00,42.2,33.5,30.61,ESE,105,0.0,0.0,71,0.00,,,0.00,Wunderground v.1.15,2013-04-22 03:10:00,
2013-04-21 23:16:00,42.0,33.6,30.61,ESE,105,0.0,0.0,72,0.00,,,0.00,Wunderground v.1.15,2013-04-22 03:16:00,
2013-04-21 23:25:00,41.7,33.0,30.61,ESE,105,0.0,0.0,71,0.00,,,0.00,Wunderground v.1.15,2013-04-22 03:25:00,
2013-04-21 23:31:00,41.5,33.1,30.61,ESE,105,0.0,0.0,72,0.00,,,0.00,Wunderground v.1.15,2013-04-22 03:31:00,
2013-04-21 23:40:00,41.3,32.6,30.62,ESE,105,0.0,0.0,71,0.00,,,0.00,Wunderground v.1.15,2013-04-22 03:40:00,
2013-04-21 23:46:00,41.3,33.3,30.62,ESE,105,0.0,0.0,73,0.00,,,0.00,Wunderground v.1.15,2013-04-22 03:46:00,
2013-04-21 23:55:00,41.0,33.7,30.62,ESE,105,0.0,0.0,75,0.00,,,0.00,Wunderground v.1.15,2013-04-22 03:55:00,